• Join FlightAware (Why Join?)
  • Login
  • US Flag 
08:56AM EDT


 

Airport Tracker/Info


-or-


 

Live Flight TrackerFlight Track Log ✈ AWE3417 ✈ 21-Apr-2013 ✈ KMHT - KDCA

Flight Track Log - Related Links

Times and Time Zones

All times are in EDT time to prevent confusion due to time zone crossing. See the AWE3417 flight status page for this flight to view local times or setup timezone preferences in your user account.

Time Position Orientation Groundspeed Altitude Reporting Facility
EDT Latitude Longitude Course Direction KTS MPH feet Rate Location/Type
05:09PM 42.9500 -71.4333 202° Southwest 141 162 1,200  Level KA90
05:10PM 42.9650 -71.4556 313° West 184 212 2,300 1,500 Climbing Boston Center
05:11PM 43.0111 -71.4803 339° North 194 223 3,600 2,160 Climbing Boston Center
05:12PM 43.0745 -70.9701 132° Southeast  Level FlightAware Approximate
05:12PM 43.0439 -71.3975 62° Northeast 165 190 6,700  Level Boston Center
05:13PM 43.0010 -70.8843 144° Southeast  Level FlightAware Approximate
05:13PM 43.0511 -71.2922 85° East 201 231 9,500  Level Boston Center
05:14PM 42.9137 -70.9054 202° Southwest  Level FlightAware Approximate
05:14PM 43.0564 -71.1869 86° East 280 322 10,800  Level Boston Center
05:15PM 43.0756 -71.0472 79° East 334 384 12,900 1,920 Climbing Boston Center
05:16PM 43.0364 -70.9344 115° Southeast 344 396 14,700 2,100 Climbing Boston Center
05:17PM 42.9319 -70.9089 170° South 319 367 17,100 1,740 Climbing Boston Center
05:18PM 42.8469 -70.9506 200° South 319 367 18,200 1,380 Climbing Boston Center
05:19PM 42.7558 -70.9950 200° South 336 387 19,900 1,680 Climbing Boston Center
05:20PM 42.6606 -71.0425 200° South 353 406 21,600 1,500 Climbing Boston Center
05:21PM 42.5675 -71.0897 200° South 359 413 23,000 1,440 Climbing Boston Center
05:22PM 42.4681 -71.1369 199° South 371 427 24,500 1,440 Climbing Boston Center
05:23PM 42.3981 -71.2283 224° Southwest 353 406 25,900 1,380 Climbing Boston Center
05:24PM 42.3600 -71.3694 250° West 343 395 27,300 1,320 Climbing Boston Center
05:25PM 42.3214 -71.4911 247° West 350 403 28,600 1,320 Climbing Boston Center
05:26PM 42.2828 -71.6011 245° Southwest 355 409 30,000 660 Climbing Boston Center
05:27PM 42.2461 -71.7222 248° West 355 409 30,000  Level Boston Center
05:28PM 42.2092 -71.8431 248° West 355 409 30,000  Level Boston Center
05:29PM 42.1703 -71.9667 247° West 355 409 30,000  Level Boston Center
05:30PM 42.1311 -72.0872 246° West 355 409 30,000  Level Boston Center
05:31PM 42.0689 -72.2053 235° Southwest 355 409 30,000  Level Boston Center
05:32PM 42.0086 -72.3089 232° Southwest 360 414 30,000  Level Boston Center
05:33PM 41.9503 -72.4150 234° Southwest 360 414 30,000  Level Boston Center
05:34PM 41.8919 -72.5183 233° Southwest 360 414 30,000  Level Boston Center
05:35PM 41.8333 -72.6211 233° Southwest 360 414 30,000  Level Boston Center
05:36PM 41.7728 -72.7242 232° Southwest 359 413 30,000  Level Boston Center
05:37PM 41.7142 -72.8294 233° Southwest 359 413 30,000  Level Boston Center
05:38PM 41.6575 -72.9292 233° Southwest 359 413 30,000  Level Boston Center
05:39PM 41.5986 -73.0314 232° Southwest 359 413 30,000  Level Boston Center
05:40PM 41.5397 -73.1361 233° Southwest 359 413 30,000 -60 Level Boston Center
05:41PM 41.4847 -73.2353 234° Southwest 359 413 29,900 -600 Descending Boston Center
05:42PM 41.4236 -73.3397 232° Southwest 354 407 28,900 -780 Descending Boston Center
05:43PM 41.3214 -73.5117 232° Southwest 372 428 28,000 -360 Descending New York Center
05:44PM 41.2542 -73.6275 232° Southwest 386 444 28,000  Level New York Center
05:45PM 41.1867 -73.7433 232° Southwest 394 453 28,000  Level New York Center
05:46PM 41.1192 -73.8586 232° Southwest 400 460 28,000  Level New York Center
05:47PM 41.0517 -73.9711 232° Southwest 400 460 28,000  Level New York Center
05:48PM 40.9861 -74.0833 232° Southwest 400 460 28,000 -540 Level New York Center
05:49PM 40.9119 -74.1950 229° Southwest 400 460 27,000 -1,200 Descending New York Center
05:50PM 40.8461 -74.3069 232° Southwest 400 460 25,700 -1,320 Descending New York Center
05:51PM 40.7803 -74.4186 232° Southwest 400 460 24,400 -840 Descending New York Center
05:52PM 40.7144 -74.5275 231° Southwest 395 455 24,000 -240 Descending New York Center
05:53PM 40.6483 -74.6358 231° Southwest 390 449 24,000  Level New York Center
05:54PM 40.5800 -74.7467 231° Southwest 390 449 24,000  Level New York Center
05:55PM 40.5056 -74.8517 227° Southwest 390 449 24,000 -180 Level New York Center
05:56PM 40.4494 -74.9656 237° Southwest 395 455 23,700 -900 Descending New York Center
05:57PM 40.4303 -75.0925 259° West 370 426 22,200 -900 Descending New York Center
05:58PM 40.3986 -75.2214 252° West 370 426 22,000 -120 Descending New York Center
05:59PM 40.3161 -75.3058 218° Southwest 359 413 22,000  Level New York Center
06:00PM 40.2317 -75.3847 216° Southwest 364 419 22,000  Level New York Center
06:01PM 40.1453 -75.4658 216° Southwest 377 434 22,000  Level New York Center
06:02PM 40.0608 -75.5442 215° Southwest 382 440 22,000  Level New York Center
06:03PM 39.9764 -75.6197 214° Southwest 382 440 22,000  Level New York Center
06:04PM 39.8994 -75.7119 223° Southwest 372 428 22,000 -300 Level New York Center
06:05PM 39.8406 -75.8214 235° Southwest 366 421 21,500 -1,200 Descending New York Center
06:06PM 39.7836 -75.9333 237° Southwest 371 427 19,600 -1,620 Descending New York Center
06:07PM 39.7392 -76.0433 242° Southwest 359 413 18,300 -1,800 Descending New York Center
06:08PM 39.7403 -76.1597 271° West 345 397 16,000 -1,200 Descending New York Center
06:09PM 39.7403 -76.2919 270° West 363 418 16,000 -480 Level New York Center
06:10PM 39.7400 -76.4325 270° West 363 418 15,100 -900 Descending New York Center
06:11PM 39.7058 -76.5350 247° West 357 411 14,200 -1,020 Descending New York Center
06:13PM 39.5333 -76.6333 204° Southwest 351 404 12,100 -720 Descending Potomac TRACON
06:14PM 39.4333 -76.6333 180° South 350 403 12,100  Level Potomac TRACON
06:15PM 39.3333 -76.6500 187° South 352 405 12,100 -780 Level Potomac TRACON
06:16PM 39.2333 -76.6500 180° South 345 397 10,600 -1,020 Descending Potomac TRACON
06:17PM 39.1500 -76.6833 197° South 301 346 10,100 -300 Descending Potomac TRACON
06:18PM 39.1000 -76.7500 226° Southwest 282 325 10,000 -120 Descending Potomac TRACON
06:19PM 39.0500 -76.8167 226° Southwest 234 269 9,900 -720 Descending Potomac TRACON
06:20PM 39.0000 -76.8500 207° Southwest 212 244 8,700 -1,440 Descending Potomac TRACON
06:21PM 38.9667 -76.9167 237° Southwest 216 249 7,100 -1,380 Descending Potomac TRACON
06:22PM 38.9833 -76.9667 293° West 210 242 6,000 -600 Descending Potomac TRACON
06:23PM 39.0000 -77.0333 288° West 197 227 6,000  Level Potomac TRACON
06:24PM 39.0333 -77.1000 303° West 204 235 6,000 -300 Level Potomac TRACON
06:25PM 39.0833 -77.1500 322° Northwest 201 231 5,400 -480 Descending Potomac TRACON
06:26PM 39.1000 -77.2167 288° West 219 252 5,100 -300 Descending Potomac TRACON
06:27PM 39.0667 -77.2667 229° Southwest 186 214 4,800 -720 Descending Potomac TRACON
06:28PM 39.0333 -77.2333 142° Southeast 169 194 3,700 -900 Descending Potomac TRACON
06:29PM 39.0000 -77.1833 131° Southeast 173 199 3,000 -600 Descending Potomac TRACON
06:30PM 38.9667 -77.1500 142° Southeast 169 194 2,500 -540 Descending Potomac TRACON